Time;durP1;ratioP1;P1;durP2;ratioP2;P2;SDS_P1;SDS_P2;PMS_P1;PMS_P2;Temp;Humidity;BMP_temperature;BMP_pressure;BME280_temperature;BME280_humidity;BME280_pressure;Samples;Min_cycle;Max_cycle;Signal;HPM_P1;HPM_P2
2023/07/21 00:00:29;;;;;;;3.33;3.03;;;15.70;99.90;;;;;;488642;243;28858;-77
2023/07/21 00:02:30;;;;;;;3.13;2.87;;;15.70;99.90;;;;;;488587;243;28764;-81
2023/07/21 00:04:32;;;;;;;3.50;3.20;;;15.70;99.90;;;;;;488614;243;28761;-80
2023/07/21 00:06:33;;;;;;;4.03;2.90;;;15.70;99.90;;;;;;488574;243;28741;-82
2023/07/21 00:08:34;;;;;;;3.90;3.20;;;15.80;99.90;;;;;;488550;243;28730;-80
2023/07/21 00:10:35;;;;;;;4.03;3.10;;;15.70;99.90;;;;;;488579;243;28764;-78
2023/07/21 00:12:37;;;;;;;6.50;2.40;;;15.60;99.90;;;;;;488496;243;28819;-79
2023/07/21 00:14:38;;;;;;;4.33;3.00;;;15.70;99.90;;;;;;488502;243;29231;-81
2023/07/21 00:16:39;;;;;;;4.50;3.40;;;15.60;99.90;;;;;;488598;243;29271;-81
2023/07/21 00:18:41;;;;;;;6.27;3.30;;;15.70;99.90;;;;;;488603;243;29311;-80
2023/07/21 00:20:42;;;;;;;7.80;3.53;;;15.70;99.90;;;;;;488517;243;28844;-78
2023/07/21 00:22:43;;;;;;;3.20;2.90;;;15.70;99.90;;;;;;488552;243;28726;-81
2023/07/21 00:24:44;;;;;;;3.40;2.90;;;15.70;99.90;;;;;;488546;243;28784;-81
2023/07/21 00:26:46;;;;;;;3.60;3.07;;;15.60;99.90;;;;;;488617;243;28849;-80
2023/07/21 00:28:47;;;;;;;3.90;3.43;;;15.60;99.90;;;;;;488626;243;28723;-79
2023/07/21 00:30:48;;;;;;;3.23;2.93;;;15.40;99.90;;;;;;488541;243;28746;-80
2023/07/21 00:32:49;;;;;;;3.50;2.80;;;15.50;99.90;;;;;;488535;243;28710;-81
2023/07/21 00:34:50;;;;;;;4.37;2.57;;;15.50;99.90;;;;;;488529;243;28888;-77
2023/07/21 00:36:52;;;;;;;3.13;2.63;;;15.60;99.90;;;;;;488618;243;28875;-77
2023/07/21 00:38:53;;;;;;;5.43;2.60;;;15.60;99.90;;;;;;488599;243;29181;-79
2023/07/21 00:40:54;;;;;;;2.90;2.40;;;15.50;99.90;;;;;;488607;243;29331;-78
2023/07/21 00:42:55;;;;;;;6.50;3.77;;;15.60;99.90;;;;;;488551;243;29182;-79
2023/07/21 00:44:57;;;;;;;8.10;3.70;;;15.50;99.90;;;;;;488530;243;29234;-80
2023/07/21 00:46:58;;;;;;;5.97;3.33;;;15.50;99.90;;;;;;488624;243;28859;-78
2023/07/21 00:49:00;;;;;;;7.30;2.80;;;15.50;99.90;;;;;;488594;243;28722;-80
2023/07/21 00:51:00;;;;;;;2.90;2.60;;;15.50;99.90;;;;;;488513;243;28777;-78
2023/07/21 00:53:04;;;;;;;5.80;2.57;;;15.40;99.90;;;;;;488535;243;28720;-80
2023/07/21 00:55:03;;;;;;;3.73;2.87;;;15.40;99.90;;;;;;488442;243;28760;-80
2023/07/21 00:57:04;;;;;;;3.43;2.47;;;15.40;99.90;;;;;;488581;243;28763;-78
2023/07/21 00:59:05;;;;;;;3.13;2.20;;;15.30;99.90;;;;;;488521;243;28716;-80
2023/07/21 01:01:07;;;;;;;2.83;2.30;;;15.30;99.90;;;;;;488547;243;28765;-76
2023/07/21 01:03:08;;;;;;;6.83;2.30;;;15.30;99.90;;;;;;488534;243;28726;-80
2023/07/21 01:05:09;;;;;;;6.87;2.50;;;15.30;99.90;;;;;;488598;243;29292;-79
2023/07/21 01:07:10;;;;;;;2.63;2.30;;;15.30;99.90;;;;;;488595;243;29332;-77
2023/07/21 01:09:12;;;;;;;2.70;2.50;;;15.20;99.90;;;;;;488626;243;29183;-78
2023/07/21 01:11:13;;;;;;;3.00;2.70;;;15.00;99.90;;;;;;488517;243;28760;-77
2023/07/21 01:13:14;;;;;;;2.43;2.23;;;15.10;99.90;;;;;;488467;243;28791;-80
2023/07/21 01:15:15;;;;;;;1.93;1.83;;;15.10;99.90;;;;;;488532;243;28803;-78
2023/07/21 01:17:17;;;;;;;2.90;2.57;;;15.10;99.90;;;;;;488529;243;28822;-78
2023/07/21 01:19:18;;;;;;;3.07;2.30;;;15.00;99.90;;;;;;488431;243;28720;-82
2023/07/21 01:21:19;;;;;;;2.30;2.10;;;15.00;99.90;;;;;;488533;243;28769;-79
2023/07/21 01:23:20;;;;;;;2.60;2.40;;;15.10;99.90;;;;;;488212;243;28836;-76
2023/07/21 01:25:22;;;;;;;2.63;2.43;;;15.10;99.90;;;;;;488068;243;28764;-79
2023/07/21 01:27:23;;;;;;;2.60;2.33;;;15.20;99.90;;;;;;488342;243;28749;-80
2023/07/21 01:29:24;;;;;;;4.00;2.70;;;15.20;99.90;;;;;;488489;243;29281;-81
2023/07/21 01:31:25;;;;;;;2.70;2.50;;;15.20;99.90;;;;;;488504;243;29286;-78
2023/07/21 01:33:27;;;;;;;3.20;2.80;;;15.30;99.90;;;;;;488593;243;29253;-78
2023/07/21 01:35:29;;;;;;;2.63;2.27;;;15.30;99.90;;;;;;488566;243;29237;-77
2023/07/21 01:37:29;;;;;;;3.60;2.53;;;15.20;99.90;;;;;;488533;243;28796;-80
2023/07/21 01:39:31;;;;;;;2.83;2.53;;;15.30;99.90;;;;;;488469;243;28835;-81
2023/07/21 01:41:32;;;;;;;2.77;2.37;;;15.30;99.90;;;;;;488534;243;28765;-79
2023/07/21 01:43:33;;;;;;;2.40;2.20;;;15.30;99.90;;;;;;488555;243;28756;-77
2023/07/21 01:45:34;;;;;;;2.57;2.37;;;15.40;99.90;;;;;;488540;243;28720;-81
2023/07/21 01:47:36;;;;;;;2.07;1.90;;;15.40;99.90;;;;;;488541;243;28798;-79
2023/07/21 01:49:37;;;;;;;2.47;2.27;;;15.30;99.90;;;;;;488536;243;28711;-81
2023/07/21 01:51:39;;;;;;;2.23;2.03;;;15.30;99.90;;;;;;488547;243;28763;-81
2023/07/21 01:53:39;;;;;;;2.63;2.00;;;15.30;99.90;;;;;;488603;243;29344;-79
2023/07/21 01:55:41;;;;;;;3.60;2.27;;;15.30;99.90;;;;;;488551;243;29248;-79
2023/07/21 01:57:43;;;;;;;2.83;2.03;;;15.20;99.90;;;;;;488559;243;29369;-78
2023/07/21 01:59:43;;;;;;;3.13;2.23;;;15.10;99.90;;;;;;488527;243;29262;-78
2023/07/21 02:01:44;;;;;;;2.40;2.07;;;15.00;99.90;;;;;;488551;243;28838;-79
2023/07/21 02:03:46;;;;;;;2.50;2.30;;;15.00;99.90;;;;;;488536;243;28762;-80
2023/07/21 02:05:48;;;;;;;2.20;2.00;;;15.10;99.90;;;;;;488541;243;28764;-80
2023/07/21 02:07:48;;;;;;;2.10;2.00;;;15.20;99.90;;;;;;488518;243;28759;-80
2023/07/21 02:09:49;;;;;;;3.90;2.07;;;15.30;99.90;;;;;;488516;243;28758;-79
2023/07/21 02:11:51;;;;;;;3.10;2.30;;;15.40;99.90;;;;;;488561;241;28760;-81
2023/07/21 02:13:52;;;;;;;5.87;2.33;;;15.40;99.90;;;;;;488554;243;28753;-80
2023/07/21 02:15:53;;;;;;;7.27;2.57;;;15.50;99.90;;;;;;488567;243;28729;-81
2023/07/21 02:17:54;;;;;;;5.60;2.40;;;15.60;99.90;;;;;;488520;243;28901;-80
2023/07/21 02:19:56;;;;;;;2.93;2.10;;;15.60;99.90;;;;;;488553;243;29405;-79
2023/07/21 02:21:57;;;;;;;2.40;2.20;;;15.60;99.90;;;;;;488589;243;29181;-78
2023/07/21 02:23:58;;;;;;;2.47;2.23;;;15.50;99.90;;;;;;488581;243;29187;-76
2023/07/21 02:25:59;;;;;;;2.73;2.23;;;15.50;99.90;;;;;;488602;243;28724;-78
2023/07/21 02:28:01;;;;;;;4.40;2.50;;;15.40;99.90;;;;;;488596;243;28862;-78
2023/07/21 02:30:02;;;;;;;3.13;2.20;;;15.40;99.90;;;;;;488565;243;28832;-80
2023/07/21 02:32:03;;;;;;;2.60;2.40;;;15.40;99.90;;;;;;488590;243;28787;-81
2023/07/21 02:34:05;;;;;;;1.90;1.80;;;15.40;99.90;;;;;;488571;243;28776;-79
2023/07/21 02:36:06;;;;;;;2.20;1.90;;;15.40;99.90;;;;;;488538;243;28743;-79
2023/07/21 02:38:07;;;;;;;5.87;2.83;;;15.40;99.90;;;;;;488520;243;28775;-80
2023/07/21 02:40:09;;;;;;;2.20;2.00;;;15.30;99.90;;;;;;488564;243;29205;-78
2023/07/21 02:42:09;;;;;;;3.10;2.30;;;15.30;99.90;;;;;;488539;243;28849;-80
2023/07/21 02:44:11;;;;;;;2.43;2.20;;;15.30;99.90;;;;;;488535;243;29308;-78
2023/07/21 02:46:13;;;;;;;2.60;2.00;;;15.30;99.90;;;;;;488517;243;29271;-80
2023/07/21 02:48:13;;;;;;;2.43;2.23;;;15.40;99.90;;;;;;488444;243;29214;-79
2023/07/21 02:50:14;;;;;;;2.80;2.13;;;15.50;99.90;;;;;;488550;243;29317;-78
2023/07/21 02:52:16;;;;;;;2.37;2.17;;;15.50;99.90;;;;;;488502;243;28727;-79
2023/07/21 02:54:17;;;;;;;5.03;2.10;;;15.50;99.90;;;;;;488501;243;28830;-79
2023/07/21 02:56:18;;;;;;;2.30;2.10;;;15.50;99.90;;;;;;488503;243;28897;-80
2023/07/21 02:58:20;;;;;;;3.23;2.57;;;15.50;99.90;;;;;;488541;243;28758;-79
2023/07/21 03:00:21;;;;;;;3.70;2.57;;;15.40;99.90;;;;;;488549;243;28760;-77
2023/07/21 03:02:22;;;;;;;2.53;2.30;;;15.30;99.90;;;;;;488560;243;28704;-78
2023/07/21 03:04:23;;;;;;;2.30;2.10;;;15.20;99.90;;;;;;488535;243;28745;-79
2023/07/21 03:06:25;;;;;;;2.57;2.27;;;15.30;99.90;;;;;;488586;243;28739;-77
2023/07/21 03:08:30;;;;;;;2.50;2.30;;;15.30;99.90;;;;;;488551;243;28815;-79
2023/07/21 03:10:30;;;;;;;3.00;2.80;;;15.40;99.90;;;;;;488511;243;29154;-78
2023/07/21 03:12:31;;;;;;;2.60;2.30;;;15.30;99.90;;;;;;488582;243;28754;-77
2023/07/21 03:14:32;;;;;;;2.83;2.23;;;15.30;99.90;;;;;;488581;243;28712;-77
2023/07/21 03:16:34;;;;;;;4.83;2.53;;;15.30;99.90;;;;;;488522;242;28756;-80
2023/07/21 03:18:35;;;;;;;2.90;2.43;;;15.30;99.90;;;;;;488590;243;28767;-77
2023/07/21 03:20:36;;;;;;;2.90;2.70;;;15.20;99.90;;;;;;488595;243;28725;-79
2023/07/21 03:22:37;;;;;;;3.17;2.23;;;15.20;99.90;;;;;;488524;243;29331;-81
2023/07/21 03:24:39;;;;;;;2.40;2.20;;;15.20;99.90;;;;;;488535;243;29254;-80
2023/07/21 03:26:40;;;;;;;3.33;2.20;;;15.00;99.90;;;;;;488488;243;29653;-79
2023/07/21 03:28:41;;;;;;;3.03;2.73;;;15.00;99.90;;;;;;488566;243;29526;-79
2023/07/21 03:30:43;;;;;;;4.30;3.10;;;15.00;99.90;;;;;;488580;243;28716;-80
2023/07/21 03:32:45;;;;;;;2.43;2.23;;;15.00;99.90;;;;;;488522;243;28761;-79
2023/07/21 03:34:45;;;;;;;3.37;2.57;;;14.80;99.90;;;;;;488434;243;28799;-80
2023/07/21 03:36:46;;;;;;;2.83;2.63;;;14.80;99.90;;;;;;488488;243;28749;-79
2023/07/21 03:38:47;;;;;;;3.30;2.40;;;14.80;99.90;;;;;;488596;243;29088;-78
2023/07/21 03:40:49;;;;;;;2.87;2.30;;;14.90;99.90;;;;;;488593;243;28712;-79
2023/07/21 03:42:50;;;;;;;2.37;2.17;;;14.80;99.90;;;;;;488608;243;28768;-79
2023/07/21 03:44:51;;;;;;;2.43;2.27;;;14.90;99.90;;;;;;488597;243;28770;-79
2023/07/21 03:46:52;;;;;;;3.13;2.20;;;14.90;99.90;;;;;;488548;243;29349;-79
2023/07/21 03:48:54;;;;;;;2.60;2.30;;;14.80;99.90;;;;;;488627;243;29231;-79
2023/07/21 03:50:55;;;;;;;3.00;2.70;;;14.80;99.90;;;;;;488509;243;28713;-80
2023/07/21 03:52:56;;;;;;;4.33;2.80;;;14.60;99.90;;;;;;488517;243;28776;-80
2023/07/21 03:54:57;;;;;;;3.30;2.97;;;14.40;99.90;;;;;;488512;243;28758;-81
2023/07/21 03:56:59;;;;;;;4.73;2.40;;;14.50;99.90;;;;;;488525;243;28812;-80
2023/07/21 03:59:00;;;;;;;3.43;2.57;;;14.50;99.90;;;;;;488557;243;28762;-77
2023/07/21 04:01:01;;;;;;;3.00;2.63;;;14.60;99.90;;;;;;488526;243;28820;-79
2023/07/21 04:03:02;;;;;;;5.07;2.20;;;14.80;99.90;;;;;;488567;243;29224;-78
2023/07/21 04:05:04;;;;;;;2.47;2.27;;;14.80;99.90;;;;;;488567;243;29321;-80
2023/07/21 04:07:08;;;;;;;2.40;2.20;;;14.90;99.90;;;;;;488588;243;29298;-80
2023/07/21 04:09:12;;;;;;;3.50;2.60;;;14.90;99.90;;;;;;488614;243;28743;-78
2023/07/21 04:11:10;;;;;;;4.50;2.60;;;14.90;99.90;;;;;;488404;243;28756;-78
2023/07/21 04:13:11;;;;;;;3.40;2.57;;;15.00;99.90;;;;;;488534;243;28773;-81
2023/07/21 04:15:13;;;;;;;3.27;2.67;;;14.90;99.90;;;;;;488578;243;28840;-78
2023/07/21 04:17:14;;;;;;;5.57;2.60;;;15.00;99.90;;;;;;488579;243;29180;-79
2023/07/21 04:19:15;;;;;;;3.40;2.43;;;14.90;99.90;;;;;;488601;243;29214;-78
2023/07/21 04:21:16;;;;;;;5.60;2.40;;;14.90;99.90;;;;;;488608;243;29335;-78
2023/07/21 04:23:18;;;;;;;2.90;2.63;;;14.90;99.90;;;;;;488575;243;29191;-79
2023/07/21 04:25:19;;;;;;;3.30;2.47;;;14.90;99.90;;;;;;488519;243;28725;-80
2023/07/21 04:27:20;;;;;;;2.60;2.40;;;14.90;99.90;;;;;;488527;243;28740;-80
2023/07/21 04:29:21;;;;;;;2.77;2.57;;;15.00;99.90;;;;;;488539;243;28760;-81
2023/07/21 04:31:28;;;;;;;4.33;2.47;;;15.00;99.90;;;;;;488555;243;28745;-78
2023/07/21 04:33:24;;;;;;;3.23;2.50;;;15.00;99.90;;;;;;488193;243;28721;-79
2023/07/21 04:35:25;;;;;;;2.90;2.40;;;15.10;99.90;;;;;;488521;243;28760;-80
2023/07/21 04:37:27;;;;;;;2.57;2.37;;;15.00;99.90;;;;;;488556;243;28851;-80
2023/07/21 04:39:28;;;;;;;2.53;2.30;;;15.10;99.90;;;;;;488575;243;28796;-79
2023/07/21 04:41:29;;;;;;;2.60;2.40;;;15.10;99.90;;;;;;488553;243;28835;-79
2023/07/21 04:43:30;;;;;;;2.83;2.63;;;15.20;99.90;;;;;;488544;243;29336;-80
2023/07/21 04:45:32;;;;;;;2.87;2.57;;;15.20;99.90;;;;;;488545;243;29244;-80
2023/07/21 04:47:33;;;;;;;3.30;3.00;;;15.10;99.90;;;;;;488549;243;30133;-80
2023/07/21 04:49:34;;;;;;;3.33;2.50;;;15.10;99.90;;;;;;488563;243;28812;-78
2023/07/21 04:51:35;;;;;;;3.33;2.53;;;15.20;99.90;;;;;;488615;243;28829;-77
2023/07/21 04:53:36;;;;;;;3.10;2.80;;;15.20;99.90;;;;;;488602;243;28721;-80
2023/07/21 04:55:38;;;;;;;3.43;2.73;;;15.20;99.90;;;;;;488602;241;28827;-79
2023/07/21 04:57:39;;;;;;;3.10;2.80;;;15.00;99.90;;;;;;488622;243;28738;-79
2023/07/21 04:59:42;;;;;;;2.90;2.70;;;15.00;99.90;;;;;;488602;243;28704;-78
2023/07/21 05:01:42;;;;;;;3.70;2.80;;;15.10;99.90;;;;;;488431;243;28767;-80
2023/07/21 05:03:43;;;;;;;2.80;2.30;;;15.00;99.90;;;;;;488544;243;28734;-80
2023/07/21 05:05:44;;;;;;;3.17;2.87;;;15.20;99.90;;;;;;488547;243;28846;-78
2023/07/21 05:07:45;;;;;;;2.97;2.70;;;15.30;99.90;;;;;;488596;243;29316;-79
2023/07/21 05:09:46;;;;;;;7.73;2.53;;;15.40;99.90;;;;;;488552;243;29166;-80
2023/07/21 05:11:48;;;;;;;2.73;2.53;;;15.50;99.90;;;;;;488582;243;29235;-79
2023/07/21 05:13:51;;;;;;;3.30;2.60;;;15.50;99.90;;;;;;488591;243;29188;-80
2023/07/21 05:15:50;;;;;;;2.83;2.60;;;15.50;99.90;;;;;;488423;243;28756;-80
2023/07/21 05:17:51;;;;;;;3.87;2.60;;;15.60;99.90;;;;;;488611;243;28883;-80
2023/07/21 05:19:53;;;;;;;3.10;2.33;;;15.70;99.90;;;;;;488550;243;28720;-80
2023/07/21 05:21:55;;;;;;;3.07;2.77;;;15.80;99.90;;;;;;488562;243;28840;-79
2023/07/21 05:23:55;;;;;;;3.47;2.60;;;15.90;99.90;;;;;;488465;243;28831;-83
2023/07/21 05:25:56;;;;;;;3.00;2.80;;;16.00;99.90;;;;;;488521;243;28866;-81
2023/07/21 05:27:58;;;;;;;2.87;2.57;;;16.10;99.90;;;;;;488565;243;29132;-80
2023/07/21 05:29:59;;;;;;;2.50;2.30;;;16.10;99.90;;;;;;488563;243;28772;-80
2023/07/21 05:32:02;;;;;;;3.03;2.40;;;16.20;99.90;;;;;;488550;243;29198;-80
2023/07/21 05:34:01;;;;;;;2.90;2.43;;;16.30;99.90;;;;;;488331;243;29299;-78
2023/07/21 05:36:05;;;;;;;2.90;2.70;;;16.40;99.90;;;;;;488492;243;29324;-80
2023/07/21 05:38:04;;;;;;;2.50;2.30;;;16.50;99.90;;;;;;488411;243;29215;-80
2023/07/21 05:40:06;;;;;;;3.43;3.13;;;16.60;99.90;;;;;;488556;243;28709;-80
2023/07/21 05:42:06;;;;;;;2.63;2.43;;;16.70;99.90;;;;;;488470;243;28869;-77
2023/07/21 05:44:09;;;;;;;3.10;2.37;;;16.80;99.90;;;;;;488537;242;28729;-80
2023/07/21 05:46:10;;;;;;;4.87;2.70;;;16.90;99.90;;;;;;488487;243;28839;-80
2023/07/21 05:48:10;;;;;;;2.80;2.60;;;16.90;99.90;;;;;;488452;243;28765;-80
2023/07/21 05:50:11;;;;;;;3.50;2.80;;;16.90;99.90;;;;;;488541;243;28843;-81
2023/07/21 05:52:13;;;;;;;3.80;2.50;;;17.00;99.90;;;;;;488542;243;28765;-80
2023/07/21 05:54:14;;;;;;;2.60;2.30;;;17.10;99.90;;;;;;488522;243;28811;-80
2023/07/21 05:56:15;;;;;;;6.03;2.70;;;17.10;99.90;;;;;;488527;243;28752;-80
2023/07/21 05:58:18;;;;;;;3.13;2.40;;;17.10;99.90;;;;;;488553;243;29267;-80
2023/07/21 06:00:18;;;;;;;2.60;2.40;;;17.10;99.90;;;;;;488455;243;29218;-80
2023/07/21 06:02:19;;;;;;;4.20;2.87;;;17.10;99.90;;;;;;488533;243;29325;-80
2023/07/21 06:04:20;;;;;;;3.97;2.67;;;17.10;99.90;;;;;;488525;243;28721;-81
2023/07/21 06:06:23;;;;;;;3.13;2.80;;;17.10;99.90;;;;;;488541;243;28827;-81
2023/07/21 06:08:24;;;;;;;3.10;2.80;;;17.10;99.90;;;;;;488519;243;28832;-79
2023/07/21 06:10:24;;;;;;;5.57;2.60;;;17.10;99.90;;;;;;488528;243;28729;-82
2023/07/21 06:12:25;;;;;;;3.23;2.60;;;17.20;99.90;;;;;;488628;243;28756;-80
2023/07/21 06:14:26;;;;;;;3.40;2.73;;;17.30;99.90;;;;;;488592;243;28718;-81
2023/07/21 06:16:28;;;;;;;2.70;2.50;;;17.40;99.90;;;;;;488569;243;28815;-80
2023/07/21 06:18:29;;;;;;;3.77;2.80;;;17.50;99.90;;;;;;488593;243;28753;-80
2023/07/21 06:20:30;;;;;;;3.17;2.87;;;17.60;99.90;;;;;;488594;242;28729;-81
2023/07/21 06:22:31;;;;;;;3.20;2.70;;;17.60;99.90;;;;;;488556;243;29242;-80
2023/07/21 06:24:33;;;;;;;3.83;3.00;;;17.80;99.90;;;;;;488579;243;29975;-81
2023/07/21 06:26:34;;;;;;;2.83;2.63;;;17.70;99.90;;;;;;488649;243;29287;-82
2023/07/21 06:28:35;;;;;;;4.20;2.73;;;17.60;99.90;;;;;;488611;243;29345;-79
2023/07/21 06:30:36;;;;;;;3.77;3.00;;;17.60;99.90;;;;;;488591;243;28729;-81
2023/07/21 06:32:38;;;;;;;3.47;2.97;;;17.60;99.90;;;;;;488576;243;28791;-80
2023/07/21 06:34:39;;;;;;;3.30;2.50;;;17.60;99.90;;;;;;488602;243;28770;-82
2023/07/21 06:36:40;;;;;;;18.43;2.57;;;17.70;99.90;;;;;;488656;243;28823;-81
2023/07/21 06:38:41;;;;;;;2.57;2.37;;;17.60;99.90;;;;;;488548;243;28849;-81
2023/07/21 06:40:43;;;;;;;3.20;2.90;;;17.70;99.90;;;;;;488580;243;28719;-81
2023/07/21 06:42:45;;;;;;;3.23;2.93;;;17.60;99.90;;;;;;488597;243;28779;-81
2023/07/21 06:44:45;;;;;;;3.60;2.73;;;17.60;99.90;;;;;;488617;243;28763;-82
2023/07/21 06:46:49;;;;;;;3.10;2.70;;;17.60;99.90;;;;;;488582;243;29168;-80
2023/07/21 06:48:48;;;;;;;3.10;2.80;;;17.70;99.90;;;;;;488419;243;29305;-80
2023/07/21 06:50:49;;;;;;;2.90;2.53;;;17.90;99.90;;;;;;488566;243;29262;-82
2023/07/21 06:52:50;;;;;;;3.00;2.70;;;17.90;99.90;;;;;;488515;243;29391;-80
2023/07/21 06:54:51;;;;;;;2.80;2.50;;;18.00;99.90;;;;;;488613;243;28839;-80
2023/07/21 06:56:53;;;;;;;2.70;2.50;;;18.00;99.90;;;;;;488566;243;28835;-81
2023/07/21 06:58:54;;;;;;;5.33;3.10;;;18.10;99.90;;;;;;488545;243;28748;-80
2023/07/21 07:00:57;;;;;;;4.33;2.40;;;18.10;99.90;;;;;;488565;243;28785;-82
2023/07/21 07:02:57;;;;;;;3.20;2.87;;;18.20;99.90;;;;;;488486;243;28801;-82
2023/07/21 07:04:58;;;;;;;2.57;2.37;;;18.30;99.90;;;;;;488639;243;28749;-79
2023/07/21 07:06:59;;;;;;;4.60;2.47;;;18.50;99.90;;;;;;488632;243;28727;-82
2023/07/21 07:09:00;;;;;;;6.43;2.40;;;18.40;99.90;;;;;;488602;243;28717;-81
2023/07/21 07:11:01;;;;;;;2.47;2.27;;;18.50;99.90;;;;;;488620;243;28847;-83
2023/07/21 07:13:03;;;;;;;3.90;2.33;;;18.70;99.90;;;;;;488638;243;29187;-80
2023/07/21 07:15:04;;;;;;;3.30;2.27;;;18.70;99.90;;;;;;488560;243;29274;-80
2023/07/21 07:17:05;;;;;;;3.27;2.97;;;18.80;99.90;;;;;;488611;243;29179;-83
2023/07/21 07:19:06;;;;;;;2.50;2.30;;;18.80;99.90;;;;;;488579;243;28883;-81
2023/07/21 07:21:08;;;;;;;3.73;2.30;;;18.80;99.90;;;;;;488590;243;28811;-81
2023/07/21 07:23:09;;;;;;;10.50;2.10;;;18.90;99.90;;;;;;488580;243;28717;-82
2023/07/21 07:25:10;;;;;;;2.10;2.00;;;19.10;99.90;;;;;;488612;243;28864;-80
2023/07/21 07:27:12;;;;;;;8.13;2.50;;;19.20;99.90;;;;;;488600;243;28881;-81
2023/07/21 07:29:15;;;;;;;2.40;2.20;;;19.20;99.90;;;;;;488610;243;28782;-81
2023/07/21 07:31:14;;;;;;;5.00;2.80;;;19.10;99.90;;;;;;488461;243;29124;-80
2023/07/21 07:33:15;;;;;;;2.63;2.00;;;19.10;99.90;;;;;;488659;243;28764;-81
2023/07/21 07:35:17;;;;;;;4.70;2.13;;;19.00;99.90;;;;;;488518;243;29312;-80
2023/07/21 07:37:18;;;;;;;4.53;2.30;;;18.90;99.90;;;;;;488609;243;29291;-82
2023/07/21 07:39:19;;;;;;;3.33;2.50;;;18.90;99.90;;;;;;488612;243;29230;-82
2023/07/21 07:41:20;;;;;;;4.30;2.60;;;18.80;99.90;;;;;;488579;243;29250;-81
2023/07/21 07:43:22;;;;;;;3.97;2.50;;;18.80;99.90;;;;;;488558;243;28761;-82
2023/07/21 07:45:23;;;;;;;5.37;2.20;;;18.90;99.90;;;;;;488530;243;28840;-80
2023/07/21 07:47:24;;;;;;;6.13;2.77;;;18.90;99.90;;;;;;488524;243;28719;-81
2023/07/21 07:49:25;;;;;;;2.83;2.13;;;19.00;99.90;;;;;;488589;243;28725;-81
2023/07/21 07:51:27;;;;;;;2.00;1.90;;;19.20;99.90;;;;;;488526;243;28823;-81
2023/07/21 07:53:28;;;;;;;2.30;2.10;;;19.30;99.90;;;;;;488534;243;28735;-82
2023/07/21 07:55:29;;;;;;;2.57;2.10;;;19.50;99.90;;;;;;488537;243;28748;-81
2023/07/21 07:57:30;;;;;;;3.90;2.03;;;19.60;99.90;;;;;;488565;243;28791;-83
2023/07/21 07:59:32;;;;;;;3.77;2.40;;;19.50;99.90;;;;;;488616;243;28757;-83
2023/07/21 08:01:33;;;;;;;3.20;2.20;;;19.50;99.90;;;;;;488598;243;29311;-79
2023/07/21 08:03:34;;;;;;;2.20;2.00;;;19.40;99.90;;;;;;488592;243;29299;-83
2023/07/21 08:05:35;;;;;;;2.30;2.10;;;19.40;99.90;;;;;;488598;242;29371;-82
2023/07/21 08:07:37;;;;;;;2.13;1.93;;;19.50;99.90;;;;;;488636;243;29175;-83
2023/07/21 08:09:38;;;;;;;3.40;2.27;;;19.40;99.90;;;;;;488672;243;29162;-82
2023/07/21 08:11:39;;;;;;;2.30;2.10;;;19.30;99.90;;;;;;488626;243;28756;-82
2023/07/21 08:13:40;;;;;;;4.27;2.40;;;19.30;99.90;;;;;;488637;243;28721;-82
2023/07/21 08:15:42;;;;;;;3.30;2.20;;;19.40;99.90;;;;;;488564;243;28749;-81
2023/07/21 08:17:43;;;;;;;3.30;2.13;;;19.60;99.90;;;;;;488594;243;28836;-82
2023/07/21 08:19:44;;;;;;;5.43;2.10;;;19.60;99.90;;;;;;488613;243;28815;-83
2023/07/21 08:21:48;;;;;;;3.03;2.10;;;19.50;99.90;;;;;;488564;243;28860;-81
2023/07/21 08:23:47;;;;;;;2.73;1.90;;;19.40;99.90;;;;;;488446;243;28727;-83
2023/07/21 08:25:48;;;;;;;2.20;2.00;;;19.10;99.90;;;;;;488575;243;29329;-81
2023/07/21 08:27:49;;;;;;;2.20;1.90;;;19.00;99.90;;;;;;488616;243;29407;-81
2023/07/21 08:29:50;;;;;;;4.83;2.20;;;18.90;99.90;;;;;;488591;243;29245;-82
2023/07/21 08:31:52;;;;;;;2.00;1.80;;;18.80;99.90;;;;;;488603;243;29336;-81
2023/07/21 08:33:53;;;;;;;2.90;2.00;;;18.80;99.90;;;;;;488588;243;28711;-82
2023/07/21 08:35:54;;;;;;;3.13;2.10;;;18.80;99.90;;;;;;488589;243;28755;-80
2023/07/21 08:37:56;;;;;;;4.57;2.07;;;18.70;99.90;;;;;;488554;243;28768;-81
2023/07/21 08:39:57;;;;;;;1.97;1.87;;;18.70;99.90;;;;;;488618;243;28713;-83
2023/07/21 08:41:58;;;;;;;3.47;2.30;;;18.80;99.90;;;;;;488612;243;28756;-80
2023/07/21 08:43:59;;;;;;;2.00;1.90;;;18.80;99.90;;;;;;488589;243;28780;-82
2023/07/21 08:46:00;;;;;;;5.00;2.37;;;18.80;99.90;;;;;;488560;243;28750;-81
2023/07/21 08:48:06;;;;;;;2.20;1.97;;;18.90;99.90;;;;;;488586;243;28773;-80
2023/07/21 08:50:03;;;;;;;2.70;2.27;;;18.90;99.90;;;;;;488330;243;29194;-82
2023/07/21 08:52:04;;;;;;;3.27;2.00;;;18.90;99.90;;;;;;488522;243;29242;-80
2023/07/21 08:54:05;;;;;;;2.33;2.10;;;18.90;99.90;;;;;;488587;243;29174;-81
2023/07/21 08:56:07;;;;;;;2.73;2.13;;;19.10;99.90;;;;;;488582;243;29284;-82
2023/07/21 08:58:08;;;;;;;4.60;2.20;;;19.10;99.90;;;;;;488590;243;28751;-81
2023/07/21 09:00:10;;;;;;;2.73;2.07;;;19.20;99.90;;;;;;488613;243;28783;-81
2023/07/21 09:02:10;;;;;;;2.10;2.00;;;19.20;99.90;;;;;;488431;243;28779;-81
2023/07/21 09:04:12;;;;;;;2.73;2.23;;;19.20;99.90;;;;;;488601;242;28763;-81
2023/07/21 09:06:13;;;;;;;2.80;1.90;;;19.30;99.90;;;;;;488624;243;28712;-81
2023/07/21 09:08:14;;;;;;;2.63;2.07;;;19.40;99.90;;;;;;488621;243;28783;-80
2023/07/21 09:10:15;;;;;;;3.13;2.00;;;19.40;99.90;;;;;;488607;243;28826;-82
2023/07/21 09:12:17;;;;;;;3.07;2.13;;;19.50;99.90;;;;;;488548;243;28819;-80
2023/07/21 09:14:18;;;;;;;2.07;1.90;;;19.60;99.90;;;;;;488584;243;28836;-82
2023/07/21 09:16:19;;;;;;;2.40;1.97;;;19.60;99.90;;;;;;488622;243;29186;-80
2023/07/21 09:18:20;;;;;;;2.13;1.83;;;19.70;99.90;;;;;;488519;243;29261;-81
2023/07/21 09:20:22;;;;;;;2.03;1.80;;;19.90;99.90;;;;;;488570;243;29225;-83
2023/07/21 09:22:23;;;;;;;2.20;1.70;;;20.00;99.90;;;;;;488539;243;28750;-80
2023/07/21 09:24:24;;;;;;;1.93;1.83;;;20.20;99.90;;;;;;488614;243;28751;-81
2023/07/21 09:26:25;;;;;;;3.40;1.97;;;20.20;99.90;;;;;;488612;243;28794;-82
2023/07/21 09:28:27;;;;;;;2.83;1.70;;;20.30;99.90;;;;;;488604;243;28819;-80
2023/07/21 09:30:28;;;;;;;1.90;1.80;;;20.60;99.90;;;;;;488601;242;28719;-82
2023/07/21 09:32:29;;;;;;;1.63;1.53;;;20.50;99.90;;;;;;488617;243;28817;-80
2023/07/21 09:34:30;;;;;;;2.23;1.67;;;20.60;99.90;;;;;;488596;243;28760;-79
2023/07/21 09:36:32;;;;;;;1.83;1.50;;;20.70;99.90;;;;;;485419;243;47958;-82
2023/07/21 09:38:33;;;;;;;1.70;1.60;;;20.90;99.90;;;;;;488591;243;27990;-81
2023/07/21 09:40:34;;;;;;;3.03;1.67;;;21.10;99.90;;;;;;488585;243;29178;-82
2023/07/21 09:42:35;;;;;;;2.37;1.93;;;21.10;99.90;;;;;;488562;243;29205;-82
2023/07/21 09:44:37;;;;;;;2.17;1.70;;;21.00;99.90;;;;;;488583;243;29244;-81
2023/07/21 09:46:38;;;;;;;1.97;1.40;;;21.10;99.90;;;;;;488562;243;28790;-81
2023/07/21 09:48:40;;;;;;;1.80;1.70;;;21.20;99.90;;;;;;488559;243;28749;-81
2023/07/21 09:50:40;;;;;;;1.83;1.50;;;21.40;99.90;;;;;;488516;243;28758;-81
2023/07/21 09:52:42;;;;;;;3.37;1.67;;;21.50;99.90;;;;;;488621;243;28754;-81
2023/07/21 09:54:44;;;;;;;2.30;1.63;;;21.50;99.90;;;;;;488606;243;28835;-81
2023/07/21 09:56:44;;;;;;;1.80;1.70;;;21.70;99.90;;;;;;488575;243;28731;-81
2023/07/21 09:58:45;;;;;;;1.50;1.40;;;21.60;99.90;;;;;;488559;243;28779;-81
2023/07/21 10:00:47;;;;;;;2.10;1.90;;;21.40;98.40;;;;;;488591;243;28756;-80
2023/07/21 10:02:49;;;;;;;2.00;1.80;;;21.20;98.00;;;;;;488577;243;28770;-82
2023/07/21 10:04:49;;;;;;;1.57;1.47;;;20.90;98.30;;;;;;488543;243;29290;-81
2023/07/21 10:06:53;;;;;;;1.50;1.40;;;20.80;98.40;;;;;;488526;243;28789;-83
2023/07/21 10:08:52;;;;;;;1.43;1.33;;;20.60;98.50;;;;;;488397;243;28749;-82
2023/07/21 10:10:53;;;;;;;2.03;1.73;;;20.40;98.60;;;;;;488606;243;28844;-81
2023/07/21 10:12:55;;;;;;;2.37;1.43;;;20.10;99.40;;;;;;488618;243;28755;-81
2023/07/21 10:14:55;;;;;;;1.50;1.40;;;20.10;99.90;;;;;;488579;243;28769;-81
2023/07/21 10:16:57;;;;;;;1.60;1.40;;;20.10;99.90;;;;;;488584;243;28831;-83
2023/07/21 10:18:58;;;;;;;2.50;1.77;;;20.20;99.90;;;;;;488568;243;28825;-80
2023/07/21 10:20:59;;;;;;;1.90;1.70;;;20.30;99.90;;;;;;488588;243;28744;-80
2023/07/21 10:23:00;;;;;;;1.40;1.30;;;20.40;99.90;;;;;;488597;243;28826;-81
2023/07/21 10:25:04;;;;;;;2.00;1.80;;;20.40;99.90;;;;;;488554;243;29231;-81
2023/07/21 10:27:03;;;;;;;2.50;1.90;;;20.40;99.90;;;;;;488443;243;29164;-82
2023/07/21 10:29:04;;;;;;;1.83;1.73;;;20.40;99.90;;;;;;488551;243;29351;-81
2023/07/21 10:31:05;;;;;;;1.70;1.60;;;20.30;99.90;;;;;;488602;243;28854;-82